createdAt,value
2022-12-27T00:03:36.363Z,2.48
2022-12-27T00:08:40.225Z,2.48
2022-12-27T00:13:45.671Z,2.47
2022-12-27T00:18:50.815Z,2.45
2022-12-27T00:23:56.593Z,2.45
2022-12-27T00:29:02.531Z,2.48
2022-12-27T00:34:08.103Z,2.50
2022-12-27T00:39:12.142Z,2.54
2022-12-27T00:44:17.901Z,2.50
2022-12-27T00:49:21.622Z,2.48
2022-12-27T00:54:25.293Z,2.52
2022-12-27T00:59:30.355Z,2.49
2022-12-27T01:04:34.128Z,2.48
2022-12-27T01:09:37.877Z,2.44
2022-12-27T01:14:43.010Z,2.44
2022-12-27T01:19:46.776Z,2.45
2022-12-27T01:24:50.544Z,2.41
2022-12-27T01:29:55.617Z,2.45
2022-12-27T01:34:59.293Z,2.45
2022-12-27T01:40:03.118Z,2.45
2022-12-27T01:45:16.270Z,2.44
2022-12-27T01:50:26.665Z,2.41
2022-12-27T01:55:35.067Z,2.46
2022-12-27T02:00:43.916Z,2.51
2022-12-27T02:05:47.980Z,2.53
2022-12-27T02:10:52.497Z,2.50
2022-12-27T02:15:57.541Z,2.52
2022-12-27T02:21:25.544Z,2.47
2022-12-27T02:26:50.029Z,2.48
2022-12-27T02:32:04.137Z,2.44
2022-12-27T02:37:12.067Z,2.47
2022-12-27T02:42:35.559Z,2.48
2022-12-27T02:48:00.688Z,2.48
2022-12-27T02:53:13.826Z,2.47
2022-12-27T02:58:29.383Z,2.49
2022-12-27T03:03:48.252Z,2.50
2022-12-27T03:08:59.157Z,2.53
2022-12-27T03:14:25.843Z,2.51
2022-12-27T03:19:56.684Z,2.55
2022-12-27T03:25:20.551Z,2.58
2022-12-27T03:30:42.110Z,2.60
2022-12-27T03:36:08.384Z,2.58
2022-12-27T03:41:36.236Z,2.62
2022-12-27T03:46:43.528Z,2.62
2022-12-27T03:51:52.721Z,2.62
2022-12-27T03:56:58.340Z,2.62
2022-12-27T04:02:03.152Z,2.62
2022-12-27T04:07:08.607Z,2.62
2022-12-27T04:12:29.961Z,2.60
2022-12-27T04:17:51.458Z,2.53
2022-12-27T04:23:14.105Z,2.56
2022-12-27T04:28:35.457Z,2.63
2022-12-27T04:33:57.024Z,2.74
2022-12-27T04:39:02.167Z,2.84
2022-12-27T04:44:23.884Z,2.95
2022-12-27T04:49:46.144Z,3.03
2022-12-27T04:55:00.117Z,3.03
2022-12-27T05:00:21.586Z,2.94
2022-12-27T05:05:26.349Z,2.92
2022-12-27T05:10:49.056Z,2.91
2022-12-27T05:15:52.960Z,2.98
2022-12-27T05:20:56.923Z,3.02
2022-12-27T05:26:02.013Z,3.12
2022-12-27T05:31:06.562Z,3.16
2022-12-27T05:36:11.258Z,3.18
2022-12-27T05:41:16.502Z,3.21
2022-12-27T05:46:22.088Z,3.24
2022-12-27T05:51:25.848Z,3.24
2022-12-27T05:56:30.921Z,3.25
2022-12-27T06:01:35.208Z,3.24
2022-12-27T06:06:38.995Z,3.15
2022-12-27T06:11:44.196Z,3.04
2022-12-27T06:16:48.278Z,2.96
2022-12-27T06:21:52.083Z,2.87
2022-12-27T06:26:57.155Z,2.80
2022-12-27T06:32:01.255Z,2.71
2022-12-27T06:37:05.005Z,2.61
2022-12-27T06:42:10.127Z,2.55
2022-12-27T06:47:13.853Z,2.49
2022-12-27T06:52:17.582Z,2.47
2022-12-27T06:57:22.690Z,2.43
2022-12-27T07:02:26.510Z,2.32
2022-12-27T07:07:30.350Z,2.37
2022-12-27T07:12:36.933Z,2.33
2022-12-27T07:17:40.815Z,2.29
2022-12-27T07:22:45.014Z,2.25
2022-12-27T07:27:50.113Z,2.25
2022-12-27T07:32:53.857Z,2.24
2022-12-27T07:37:57.537Z,2.20
2022-12-27T07:43:02.609Z,2.21
2022-12-27T07:48:06.847Z,2.17
2022-12-27T07:53:10.576Z,2.18
2022-12-27T07:58:15.752Z,2.21
2022-12-27T08:03:20.361Z,2.20
2022-12-27T08:08:27.958Z,2.20
2022-12-27T08:13:33.061Z,2.24
2022-12-27T08:18:36.821Z,2.22
2022-12-27T08:23:40.821Z,2.28
2022-12-27T08:28:45.985Z,2.32
2022-12-27T08:33:56.534Z,2.34
2022-12-27T08:39:02.142Z,2.35
2022-12-27T08:44:07.517Z,2.40
2022-12-27T08:49:11.234Z,2.46
2022-12-27T08:54:14.991Z,2.53
2022-12-27T08:59:20.052Z,2.57
2022-12-27T09:04:24.021Z,2.63
2022-12-27T09:09:27.755Z,2.65
2022-12-27T09:14:32.817Z,2.69
2022-12-27T09:19:37.086Z,2.80
2022-12-27T09:24:40.874Z,2.88
2022-12-27T09:29:48.478Z,2.96
2022-12-27T09:34:52.440Z,3.11
2022-12-27T09:39:57.035Z,3.24
2022-12-27T09:45:09.897Z,3.36
2022-12-27T09:50:17.957Z,3.50
2022-12-27T09:55:33.281Z,3.66
2022-12-27T10:00:44.202Z,3.76
2022-12-27T10:05:56.386Z,3.96
2022-12-27T10:11:08.688Z,4.10
2022-12-27T10:16:27.432Z,4.27
2022-12-27T10:21:36.429Z,4.40
2022-12-27T10:26:40.263Z,4.53
2022-12-27T10:31:46.380Z,4.68
2022-12-27T10:36:50.213Z,4.89
2022-12-27T10:42:02.318Z,5.07
2022-12-27T10:47:07.678Z,5.18
2022-12-27T10:52:18.957Z,5.04
2022-12-27T10:57:28.769Z,5.14
2022-12-27T11:02:34.255Z,5.27
2022-12-27T11:07:38.085Z,5.26
2022-12-27T11:12:56.195Z,5.33
2022-12-27T11:18:02.444Z,5.37
2022-12-27T11:23:14.463Z,5.39
2022-12-27T11:28:27.049Z,5.38
2022-12-27T11:33:37.639Z,5.51
2022-12-27T11:38:47.523Z,5.51
2022-12-27T11:43:55.571Z,5.55
2022-12-27T11:49:02.289Z,5.67
2022-12-27T11:54:31.591Z,5.75
2022-12-27T11:59:54.094Z,5.85
2022-12-27T12:05:39.025Z,5.82
2022-12-27T12:10:52.091Z,5.79
2022-12-27T12:16:24.101Z,5.91
2022-12-27T12:21:34.537Z,5.92
2022-12-27T12:26:54.194Z,5.83
2022-12-27T12:32:30.631Z,5.89
2022-12-27T12:37:53.916Z,5.99
2022-12-27T12:43:11.667Z,6.21
2022-12-27T12:48:32.373Z,6.41
2022-12-27T12:53:51.975Z,6.83
2022-12-27T12:59:11.537Z,6.97
2022-12-27T13:04:32.691Z,6.93
2022-12-27T13:09:48.494Z,6.94
2022-12-27T13:15:25.707Z,6.89
2022-12-27T13:20:51.462Z,6.83
2022-12-27T13:26:06.132Z,6.82
2022-12-27T13:31:27.737Z,6.51
2022-12-27T13:36:40.921Z,6.77
2022-12-27T13:42:05.629Z,6.85
2022-12-27T13:47:41.510Z,6.74
2022-12-27T13:53:00.490Z,6.66
2022-12-27T13:58:30.133Z,6.66
2022-12-27T14:03:55.869Z,6.59
2022-12-27T14:09:27.933Z,6.48
2022-12-27T14:14:33.063Z,6.41
2022-12-27T14:20:03.663Z,6.53
2022-12-27T14:25:37.140Z,6.58
2022-12-27T14:31:28.141Z,6.63
2022-12-27T14:37:14.837Z,6.68
2022-12-27T14:42:57.547Z,6.71
2022-12-27T14:48:40.394Z,6.75
2022-12-27T14:54:38.501Z,6.68
2022-12-27T14:59:48.367Z,6.67
2022-12-27T15:05:05.160Z,6.62
2022-12-27T15:10:16.967Z,6.61
2022-12-27T15:15:29.738Z,6.41
2022-12-27T15:20:53.088Z,6.35
2022-12-27T15:26:12.425Z,6.35
2022-12-27T15:31:33.655Z,6.36
2022-12-27T15:36:40.352Z,6.36
2022-12-27T15:41:59.861Z,6.28
2022-12-27T15:47:48.838Z,6.25
2022-12-27T15:53:11.308Z,6.20
2022-12-27T15:58:16.658Z,6.23
2022-12-27T16:03:36.579Z,6.24
2022-12-27T16:08:42.541Z,6.15
2022-12-27T16:13:51.044Z,6.09
2022-12-27T16:19:12.030Z,6.05
2022-12-27T16:24:20.475Z,6.04
2022-12-27T16:29:32.606Z,6.05
2022-12-27T16:34:44.124Z,6.02
2022-12-27T16:40:07.378Z,6.05
2022-12-27T16:45:33.125Z,5.95
2022-12-27T16:50:54.437Z,5.97
2022-12-27T16:56:17.376Z,5.84
2022-12-27T17:02:03.016Z,5.87
2022-12-27T17:07:06.880Z,5.82
2022-12-27T17:12:26.472Z,5.83
2022-12-27T17:17:31.143Z,5.75
2022-12-27T17:22:35.983Z,5.72
2022-12-27T17:28:06.442Z,5.61
2022-12-27T17:33:22.283Z,5.56
2022-12-27T17:38:36.684Z,5.57
2022-12-27T17:44:12.277Z,5.55
2022-12-27T17:49:17.475Z,5.51
2022-12-27T17:54:42.847Z,5.47
2022-12-27T17:59:51.613Z,5.46
2022-12-27T18:04:57.500Z,5.51
2022-12-27T18:10:04.627Z,5.47
2022-12-27T18:15:16.612Z,5.43
2022-12-27T18:20:31.992Z,5.46
2022-12-27T18:25:40.286Z,5.45
2022-12-27T18:30:48.997Z,5.43
2022-12-27T18:35:53.474Z,5.45
2022-12-27T18:41:03.699Z,5.42
2022-12-27T18:46:14.725Z,5.40
2022-12-27T18:51:18.851Z,5.34
2022-12-27T18:56:30.502Z,5.27
2022-12-27T19:01:43.084Z,5.29
2022-12-27T19:06:54.364Z,5.32
2022-12-27T19:12:01.508Z,5.27
2022-12-27T19:17:10.946Z,5.23
2022-12-27T19:22:34.729Z,5.18
2022-12-27T19:27:38.604Z,5.11
2022-12-27T19:32:43.734Z,5.09
2022-12-27T19:37:47.600Z,5.12
2022-12-27T19:42:51.401Z,5.07
2022-12-27T19:47:56.521Z,5.07
2022-12-27T19:53:00.764Z,5.06
2022-12-27T19:58:04.538Z,5.00
2022-12-27T20:03:10.852Z,4.97
2022-12-27T20:08:25.246Z,4.95
2022-12-27T20:13:29.763Z,4.91
2022-12-27T20:18:34.920Z,4.92
2022-12-27T20:23:38.759Z,4.92
2022-12-27T20:28:42.513Z,4.91
2022-12-27T20:33:51.868Z,4.97
2022-12-27T20:38:55.617Z,4.97
2022-12-27T20:43:59.918Z,5.00
2022-12-27T20:49:05.056Z,5.05
2022-12-27T20:54:08.932Z,5.03
2022-12-27T20:59:12.707Z,5.04
2022-12-27T21:04:17.810Z,5.07
2022-12-27T21:09:21.586Z,5.09
2022-12-27T21:14:25.304Z,5.10
2022-12-27T21:19:30.812Z,5.14
2022-12-27T21:24:34.665Z,5.14
2022-12-27T21:29:38.479Z,5.16
2022-12-27T21:34:43.575Z,5.17
2022-12-27T21:39:47.393Z,5.14
2022-12-27T21:44:51.486Z,5.20
2022-12-27T21:49:56.873Z,5.23
2022-12-27T21:55:00.611Z,5.21
2022-12-27T22:00:05.373Z,5.23
2022-12-27T22:05:10.810Z,5.21
2022-12-27T22:10:14.655Z,5.27
2022-12-27T22:15:18.433Z,5.28
2022-12-27T22:20:23.553Z,5.27
2022-12-27T22:25:27.321Z,5.30
2022-12-27T22:30:31.082Z,5.32
2022-12-27T22:35:36.186Z,5.33
2022-12-27T22:40:46.172Z,5.41
2022-12-27T22:45:53.886Z,5.44
2022-12-27T22:50:59.247Z,5.47
2022-12-27T22:56:03.044Z,5.51
2022-12-27T23:01:11.901Z,5.49
2022-12-27T23:06:17.885Z,5.54
2022-12-27T23:11:23.866Z,5.53
2022-12-27T23:16:27.804Z,5.54
2022-12-27T23:21:32.965Z,5.55
2022-12-27T23:26:36.996Z,5.53
2022-12-27T23:31:54.850Z,5.55
2022-12-27T23:37:01.300Z,5.56
2022-12-27T23:42:05.151Z,5.59
2022-12-27T23:47:08.950Z,5.61
2022-12-27T23:52:14.149Z,5.63
2022-12-27T23:57:20.345Z,5.64
